Chimbote, Tnte. FAP Jaime Montreuil Morales Airport (SPEO)

NameTnte. FAP Jaime Montreuil Morales Airport
CityChimbote
CountryPeru
ICAOSPEO
IATACHM
Altitude6 m
CoordinatesGoogle Map
Live Air TrafficLiveATC.net
METARSPEO 112100Z 20015KT 9999 FEW014 SCT030 20/17 Q1011 RMK TX22.4 PP000
2019-11-11 21:00:00 Wind: South (200°) 7.72 m/s - Visibility: > 10000 m - Temperature: 20 °C - Dew point: 17 °C - Humidity: 83% - Pressure: 1011 hPa

Sorry, no flights used the airport in this database.